Time;durP1;ratioP1;P1;durP2;ratioP2;P2;SDS_P1;SDS_P2;PMS_P1;PMS_P2;Temp;Humidity;BMP_temperature;BMP_pressure;BME280_temperature;BME280_humidity;BME280_pressure;Samples;Min_cycle;Max_cycle;Signal;HPM_P1;HPM_P2
2022/03/18 00:01:59;;;;;;;14.10;4.15;;;4.90;64.90;;;;;;9186237;19;20475;-66
2022/03/18 00:05:05;;;;;;;10.70;4.40;;;4.80;64.90;;;;;;9184210;19;20029;-65
2022/03/18 00:08:10;;;;;;;14.80;4.60;;;4.80;65.00;;;;;;9185127;19;20014;-66
2022/03/18 00:11:15;;;;;;;11.63;4.05;;;4.80;65.00;;;;;;9184648;19;20019;-68
2022/03/18 00:14:21;;;;;;;10.00;4.15;;;4.70;65.00;;;;;;9181325;19;20019;-66
2022/03/18 00:17:29;;;;;;;13.70;4.38;;;4.70;65.10;;;;;;9185813;19;20078;-67
2022/03/18 00:20:34;;;;;;;21.90;7.03;;;4.70;65.10;;;;;;9183963;19;20003;-67
2022/03/18 00:23:39;;;;;;;19.92;4.90;;;4.60;65.10;;;;;;9185494;19;20583;-67
2022/03/18 00:26:44;;;;;;;17.83;5.05;;;4.60;65.20;;;;;;9185836;19;20018;-67
2022/03/18 00:29:49;;;;;;;23.02;5.40;;;4.60;65.20;;;;;;9184800;19;20664;-64
2022/03/18 00:32:57;;;;;;;16.20;4.82;;;4.50;65.20;;;;;;9183406;19;20119;-66
2022/03/18 00:36:18;;;;;;;13.70;4.25;;;4.50;65.30;;;;;;9181798;19;20022;-67
2022/03/18 00:39:23;;;;;;;14.73;4.10;;;4.50;65.30;;;;;;9185536;19;20051;-68
2022/03/18 00:42:28;;;;;;;12.88;4.65;;;4.50;65.40;;;;;;9183137;19;20665;-68
2022/03/18 00:45:33;;;;;;;15.38;5.03;;;4.40;65.30;;;;;;9184406;19;20459;-66
2022/03/18 00:52:14;;;;;;;;;;;4.40;65.50;;;;;;9179810;19;20526;-69
2022/03/18 00:55:19;;;;;;;16.58;5.30;;;4.30;65.40;;;;;;9181493;19;19911;-67
2022/03/18 00:58:24;;;;;;;15.10;5.55;;;4.30;65.30;;;;;;9182877;19;20011;-67
2022/03/18 01:01:29;;;;;;;11.77;5.22;;;4.30;65.40;;;;;;9183769;19;20014;-66
2022/03/18 01:04:37;;;;;;;18.52;5.38;;;4.20;65.40;;;;;;9181719;19;20015;-67
2022/03/18 01:07:42;;;;;;;13.27;5.25;;;4.20;65.50;;;;;;9180328;19;20019;-67
2022/03/18 01:10:48;;;;;;;14.77;4.43;;;4.20;65.50;;;;;;9182822;19;20030;-67
2022/03/18 01:13:53;;;;;;;14.55;4.90;;;4.20;65.60;;;;;;9180965;19;20463;-67
2022/03/18 01:16:58;;;;;;;11.88;4.13;;;4.10;65.60;;;;;;9180964;19;20015;-66
2022/03/18 01:20:07;;;;;;;10.50;4.20;;;4.10;65.60;;;;;;9180274;19;20015;-67
2022/03/18 01:23:13;;;;;;;11.95;4.25;;;4.10;65.70;;;;;;9179250;19;20022;-66
2022/03/18 01:26:18;;;;;;;14.70;4.15;;;4.10;66.30;;;;;;9182486;19;20014;-66
2022/03/18 01:29:23;;;;;;;15.07;4.80;;;4.00;65.70;;;;;;9182603;19;20011;-65
2022/03/18 01:32:28;;;;;;;18.17;4.63;;;4.00;65.70;;;;;;9182381;19;20033;-67
2022/03/18 01:35:37;;;;;;;14.15;5.47;;;4.00;65.80;;;;;;9175134;19;20018;-67
2022/03/18 01:38:42;;;;;;;15.07;5.18;;;4.00;65.90;;;;;;9180339;19;20019;-66
2022/03/18 01:41:47;;;;;;;18.08;4.57;;;4.00;65.90;;;;;;9179517;19;20471;-66
2022/03/18 01:44:52;;;;;;;12.07;5.18;;;4.00;65.90;;;;;;9181426;19;20030;-66
2022/03/18 01:47:57;;;;;;;16.38;4.22;;;3.90;65.90;;;;;;9182875;19;20015;-66
2022/03/18 01:51:06;;;;;;;17.67;4.80;;;4.00;66.00;;;;;;9179469;19;20022;-66
2022/03/18 01:57:29;;;;;;;11.63;4.88;;;3.90;66.00;;;;;;9180924;19;20018;-69
2022/03/18 02:00:34;;;;;;;14.00;4.38;;;3.90;66.10;;;;;;9181171;19;20661;-66
2022/03/18 02:03:40;;;;;;;16.35;4.45;;;3.90;66.00;;;;;;9179018;19;20022;-67
2022/03/18 02:06:48;;;;;;;16.90;5.03;;;3.90;66.10;;;;;;9180743;19;20106;-65
2022/03/18 02:09:53;;;;;;;11.50;4.72;;;3.90;66.20;;;;;;9176684;19;20018;-69
2022/03/18 02:12:58;;;;;;;13.30;4.65;;;3.90;66.10;;;;;;9177767;19;20011;-68
2022/03/18 02:16:05;;;;;;;12.75;4.07;;;3.90;66.20;;;;;;9177858;19;20011;-67
2022/03/18 02:19:10;;;;;;;14.05;5.78;;;3.80;66.20;;;;;;9180389;19;20084;-67
2022/03/18 02:22:22;;;;;;;16.95;5.07;;;3.80;66.10;;;;;;9179874;19;20011;-68
2022/03/18 02:25:30;;;;;;;13.68;6.13;;;3.80;66.20;;;;;;9178606;19;20705;-69
2022/03/18 02:28:35;;;;;;;13.68;5.05;;;3.80;66.20;;;;;;9179399;19;20380;-65
2022/03/18 02:31:40;;;;;;;14.10;6.07;;;3.80;66.20;;;;;;9180091;19;20011;-65
2022/03/18 02:34:45;;;;;;;19.35;5.15;;;3.70;66.20;;;;;;9175421;19;20015;-65
2022/03/18 02:37:50;;;;;;;12.05;4.70;;;3.70;66.30;;;;;;9178537;19;20020;-66
2022/03/18 02:40:58;;;;;;;12.02;4.40;;;3.70;66.30;;;;;;9178300;19;20026;-66
2022/03/18 02:44:03;;;;;;;11.15;4.97;;;3.70;66.40;;;;;;9178798;19;20022;-69
2022/03/18 02:47:08;;;;;;;10.38;4.80;;;3.60;66.40;;;;;;9178965;19;20015;-66
2022/03/18 02:50:15;;;;;;;12.43;4.85;;;3.60;66.40;;;;;;9177716;19;20015;-69
2022/03/18 02:53:20;;;;;;;13.13;4.65;;;3.60;66.40;;;;;;9178473;19;20078;-66
2022/03/18 02:56:28;;;;;;;13.10;4.07;;;3.60;66.50;;;;;;9177030;19;20359;-68
2022/03/18 02:59:33;;;;;;;11.82;5.00;;;3.60;66.50;;;;;;9180610;19;20022;-67
2022/03/18 03:02:38;;;;;;;11.52;5.05;;;3.50;66.40;;;;;;9181138;19;20023;-66
2022/03/18 03:09:01;;;;;;;17.17;5.28;;;3.50;66.50;;;;;;9184580;19;20030;-66
2022/03/18 03:12:09;;;;;;;13.70;4.93;;;3.50;66.50;;;;;;9187340;19;20007;-67
2022/03/18 03:15:14;;;;;;;16.70;5.90;;;3.50;66.60;;;;;;9184115;19;20380;-68
2022/03/18 03:18:19;;;;;;;12.60;4.90;;;3.40;66.50;;;;;;9187223;19;20026;-67
2022/03/18 03:21:25;;;;;;;18.05;5.53;;;3.40;66.60;;;;;;9185677;19;20346;-67
2022/03/18 03:24:30;;;;;;;13.80;4.57;;;3.40;66.60;;;;;;9188113;19;20025;-68
2022/03/18 03:27:38;;;;;;;15.27;4.38;;;3.40;66.70;;;;;;9185550;19;20014;-67
2022/03/18 03:30:44;;;;;;;8.57;4.10;;;3.40;66.70;;;;;;9185147;19;20017;-67
2022/03/18 03:33:48;;;;;;;13.23;4.60;;;3.40;66.70;;;;;;9181334;19;20025;-69
2022/03/18 03:36:54;;;;;;;14.35;4.55;;;3.30;66.70;;;;;;9185317;19;20029;-67
2022/03/18 03:39:59;;;;;;;8.50;4.03;;;3.30;66.70;;;;;;9184783;19;20022;-66
2022/03/18 03:43:08;;;;;;;13.82;4.25;;;3.30;66.80;;;;;;9186504;19;20022;-66
2022/03/18 03:46:13;;;;;;;12.68;4.50;;;3.30;66.90;;;;;;9185511;19;20018;-67
2022/03/18 03:49:18;;;;;;;15.48;4.32;;;3.20;66.80;;;;;;9187448;19;20014;-66
2022/03/18 03:52:23;;;;;;;12.00;4.25;;;3.20;66.80;;;;;;9184522;19;20017;-68
2022/03/18 03:55:28;;;;;;;10.27;3.75;;;3.30;66.90;;;;;;9183339;19;20517;-66
2022/03/18 03:58:36;;;;;;;10.02;3.83;;;3.20;66.90;;;;;;9183356;19;20019;-68
2022/03/18 04:01:41;;;;;;;7.90;3.97;;;3.20;66.90;;;;;;9184377;19;20021;-67
2022/03/18 04:04:46;;;;;;;13.10;4.47;;;3.20;66.90;;;;;;9186010;19;20472;-67
2022/03/18 04:07:51;;;;;;;10.75;3.40;;;3.10;66.90;;;;;;9184726;19;20019;-65
2022/03/18 04:10:56;;;;;;;9.15;4.07;;;3.10;67.00;;;;;;9181602;19;20014;-67
2022/03/18 04:14:04;;;;;;;8.63;3.92;;;3.10;66.90;;;;;;9184324;19;20029;-66
2022/03/18 04:17:09;;;;;;;11.02;3.88;;;3.10;67.10;;;;;;9183617;19;20038;-65
2022/03/18 04:20:16;;;;;;;14.20;4.57;;;3.10;67.00;;;;;;9184924;19;20018;-66
2022/03/18 04:23:21;;;;;;;9.30;4.15;;;3.10;67.10;;;;;;9184108;19;20026;-67
2022/03/18 04:26:26;;;;;;;12.50;4.40;;;3.00;67.00;;;;;;9185732;19;20029;-66
2022/03/18 04:29:34;;;;;;;14.98;4.63;;;3.00;67.00;;;;;;9183893;19;20014;-65
2022/03/18 04:32:39;;;;;;;9.07;3.65;;;3.00;67.10;;;;;;9185258;19;20019;-67
2022/03/18 04:35:44;;;;;;;15.23;4.60;;;3.00;67.10;;;;;;9179536;19;20018;-69
2022/03/18 04:38:49;;;;;;;8.57;3.88;;;3.00;67.20;;;;;;9183252;19;20015;-65
2022/03/18 04:41:54;;;;;;;12.55;4.13;;;3.00;67.20;;;;;;9182534;19;20340;-67
2022/03/18 04:45:02;;;;;;;14.65;5.50;;;2.90;67.10;;;;;;9183540;19;20014;-68
2022/03/18 04:48:07;;;;;;;11.02;4.47;;;2.90;67.20;;;;;;9184836;19;20473;-67
2022/03/18 04:51:12;;;;;;;19.92;4.65;;;2.90;67.20;;;;;;9183055;19;20476;-67
2022/03/18 04:54:17;;;;;;;12.10;5.10;;;2.90;67.30;;;;;;9181425;19;20014;-67
2022/03/18 04:57:22;;;;;;;14.15;4.55;;;2.90;67.30;;;;;;9181574;19;20692;-66
2022/03/18 05:00:29;;;;;;;13.80;5.18;;;2.90;67.30;;;;;;9182580;19;20048;-68
2022/03/18 05:03:35;;;;;;;11.30;4.57;;;2.90;67.40;;;;;;9183313;19;20022;-65
2022/03/18 05:06:41;;;;;;;16.88;5.53;;;2.90;67.40;;;;;;9183814;19;20380;-66
2022/03/18 05:09:48;;;;;;;14.32;4.93;;;2.80;67.40;;;;;;9180263;19;20018;-67
2022/03/18 05:12:54;;;;;;;17.50;4.93;;;2.90;67.50;;;;;;9181603;19;20026;-67
2022/03/18 05:16:01;;;;;;;15.10;4.80;;;2.80;67.40;;;;;;9180335;19;20010;-67
2022/03/18 05:19:06;;;;;;;14.68;5.07;;;2.80;67.50;;;;;;9181351;19;20051;-67
2022/03/18 05:22:11;;;;;;;16.35;5.13;;;2.80;67.50;;;;;;9180130;19;20022;-66
2022/03/18 05:25:16;;;;;;;12.65;5.18;;;2.80;67.50;;;;;;9181481;19;20022;-66
2022/03/18 05:28:22;;;;;;;12.77;4.65;;;2.80;67.50;;;;;;9182868;19;20360;-66
2022/03/18 05:31:31;;;;;;;13.55;5.20;;;2.70;67.50;;;;;;9180220;19;21066;-65
2022/03/18 05:34:36;;;;;;;24.45;5.78;;;2.80;67.60;;;;;;9178583;19;20018;-67
2022/03/18 05:37:41;;;;;;;15.82;5.70;;;2.70;67.50;;;;;;9179631;19;20021;-66
2022/03/18 05:40:46;;;;;;;18.08;5.93;;;2.70;67.60;;;;;;9181330;19;20017;-67
2022/03/18 05:43:51;;;;;;;9.25;4.63;;;2.70;67.60;;;;;;9182544;19;20386;-68
2022/03/18 05:46:59;;;;;;;10.45;4.90;;;2.70;67.60;;;;;;9183482;19;20344;-66
2022/03/18 05:50:07;;;;;;;13.55;5.53;;;2.70;67.60;;;;;;9180166;19;20814;-65
2022/03/18 05:53:12;;;;;;;31.73;6.75;;;2.70;67.70;;;;;;9182612;19;20037;-66
2022/03/18 05:59:36;;;;;;;15.65;6.07;;;2.70;67.70;;;;;;9179233;19;20022;-66
2022/03/18 06:02:45;;;;;;;22.95;6.53;;;2.70;67.80;;;;;;9180559;19;20018;-67
2022/03/18 06:05:50;;;;;;;15.80;5.88;;;2.60;67.70;;;;;;9181700;19;20471;-67
2022/03/18 06:12:16;;;;;;;19.33;6.22;;;2.60;67.80;;;;;;9181114;19;20015;-68
2022/03/18 06:15:22;;;;;;;16.50;6.80;;;2.70;67.90;;;;;;9181103;19;20022;-67
2022/03/18 06:18:29;;;;;;;28.55;7.65;;;2.60;67.90;;;;;;9179473;19;20023;-66
2022/03/18 06:21:34;;;;;;;14.60;6.35;;;2.60;67.90;;;;;;9178625;19;20624;-67
2022/03/18 06:24:40;;;;;;;21.85;7.00;;;2.60;67.90;;;;;;9179855;19;20342;-65
2022/03/18 06:27:45;;;;;;;16.23;6.43;;;2.60;68.00;;;;;;9178786;19;20434;-65
2022/03/18 06:30:50;;;;;;;22.33;6.55;;;2.60;68.00;;;;;;9180902;19;20669;-66
2022/03/18 06:33:58;;;;;;;24.30;6.35;;;2.60;68.00;;;;;;9176620;19;20442;-66
2022/03/18 06:37:03;;;;;;;16.80;6.03;;;2.70;68.20;;;;;;9185474;19;20407;-66
2022/03/18 06:40:09;;;;;;;14.35;6.30;;;2.70;68.20;;;;;;9190317;19;20011;-66
2022/03/18 06:43:14;;;;;;;24.40;6.32;;;2.60;68.20;;;;;;9188493;19;20336;-67
2022/03/18 06:46:20;;;;;;;19.15;6.40;;;2.70;68.30;;;;;;9185657;19;20051;-67
2022/03/18 06:49:27;;;;;;;21.00;6.55;;;2.70;68.30;;;;;;9187800;19;20552;-66
2022/03/18 06:52:32;;;;;;;20.70;6.82;;;2.80;68.50;;;;;;9189742;19;20384;-67
2022/03/18 06:55:38;;;;;;;16.92;6.75;;;2.80;68.50;;;;;;9187154;19;20014;-67
2022/03/18 06:58:46;;;;;;;22.35;7.47;;;2.80;68.50;;;;;;9186747;19;20018;-64
2022/03/18 07:01:53;;;;;;;21.45;6.32;;;2.90;68.70;;;;;;9188145;19;20018;-66
2022/03/18 07:05:04;;;;;;;13.15;6.55;;;3.00;68.70;;;;;;9188459;19;20033;-67
2022/03/18 07:08:09;;;;;;;16.73;7.13;;;3.00;68.80;;;;;;9187480;19;20117;-67
2022/03/18 07:11:14;;;;;;;29.55;8.07;;;3.00;68.90;;;;;;9188284;19;20115;-66
2022/03/18 07:14:19;;;;;;;24.33;7.18;;;3.10;68.90;;;;;;9184165;19;20027;-66
2022/03/18 07:20:44;;;;;;;25.25;7.68;;;3.20;69.10;;;;;;9184363;19;20018;-68
2022/03/18 07:23:50;;;;;;;25.88;7.43;;;3.30;69.30;;;;;;9186318;19;20487;-68
2022/03/18 07:26:55;;;;;;;31.70;7.97;;;3.40;69.30;;;;;;9186478;19;20010;-67
2022/03/18 07:30:00;;;;;;;19.88;8.10;;;3.50;69.50;;;;;;9185463;19;20106;-66
2022/03/18 07:33:06;;;;;;;28.35;8.18;;;3.70;69.70;;;;;;9181999;19;20014;-66
2022/03/18 07:36:14;;;;;;;19.17;7.53;;;3.80;70.00;;;;;;9176055;19;20022;-66
2022/03/18 07:39:19;;;;;;;21.17;8.63;;;3.90;70.00;;;;;;9181029;19;20107;-66
2022/03/18 07:42:24;;;;;;;18.85;7.38;;;4.00;70.00;;;;;;9177781;19;20018;-67
2022/03/18 07:45:32;;;;;;;26.23;7.47;;;4.20;70.20;;;;;;9180663;19;20105;-66
2022/03/18 07:48:40;;;;;;;32.70;8.18;;;4.30;70.30;;;;;;9179641;19;20052;-66
2022/03/18 07:51:47;;;;;;;32.70;9.10;;;4.50;70.50;;;;;;9180546;19;20050;-66
2022/03/18 07:54:52;;;;;;;26.08;8.77;;;4.70;70.60;;;;;;9180559;19;20493;-67
2022/03/18 07:57:59;;;;;;;22.52;7.55;;;4.90;70.70;;;;;;9174354;19;20018;-68
2022/03/18 08:01:05;;;;;;;23.80;7.22;;;5.10;70.80;;;;;;9174927;19;20045;-67
2022/03/18 08:04:12;;;;;;;26.45;7.50;;;5.30;70.90;;;;;;9175939;19;20022;-67
2022/03/18 08:07:21;;;;;;;26.40;7.43;;;5.50;71.00;;;;;;9174500;19;20010;-67
2022/03/18 08:10:26;;;;;;;28.88;7.50;;;5.80;71.20;;;;;;9176136;19;20027;-68
2022/03/18 08:13:31;;;;;;;29.83;8.55;;;6.00;71.10;;;;;;9177387;19;20463;-68
2022/03/18 08:16:36;;;;;;;30.83;8.43;;;6.30;71.20;;;;;;9174850;19;20026;-69
2022/03/18 08:19:41;;;;;;;29.80;7.00;;;6.60;71.30;;;;;;9176562;19;20129;-69
2022/03/18 08:22:49;;;;;;;14.88;6.78;;;6.90;71.40;;;;;;9180650;19;20490;-67
2022/03/18 08:25:54;;;;;;;26.35;6.18;;;7.20;71.40;;;;;;9180420;19;20022;-67
2022/03/18 08:28:59;;;;;;;23.20;5.93;;;7.50;71.40;;;;;;9179532;19;20367;-68
2022/03/18 08:32:04;;;;;;;19.73;5.60;;;7.80;71.30;;;;;;9178977;19;20018;-68
2022/03/18 08:35:11;;;;;;;14.68;5.40;;;8.20;71.40;;;;;;9176004;19;20014;-67
2022/03/18 08:38:18;;;;;;;16.98;5.30;;;8.50;71.20;;;;;;9174667;19;20623;-68
2022/03/18 08:41:23;;;;;;;16.02;5.03;;;8.80;71.10;;;;;;9176966;19;20014;-68
2022/03/18 08:44:28;;;;;;;25.88;5.28;;;9.10;70.90;;;;;;9171107;19;20010;-68
2022/03/18 08:47:33;;;;;;;17.75;5.10;;;9.50;70.80;;;;;;9175713;19;20026;-67
2022/03/18 08:50:39;;;;;;;24.85;4.68;;;9.70;70.60;;;;;;9172868;19;20491;-68
2022/03/18 08:53:46;;;;;;;18.25;3.90;;;10.10;70.50;;;;;;9171987;19;20023;-68
2022/03/18 08:56:51;;;;;;;17.42;3.95;;;10.40;70.40;;;;;;9170280;19;20472;-67
2022/03/18 08:59:56;;;;;;;10.90;3.15;;;10.70;70.10;;;;;;9177081;19;20021;-67
2022/03/18 09:03:01;;;;;;;11.73;3.22;;;11.00;69.80;;;;;;9176795;19;20778;-68
2022/03/18 09:06:07;;;;;;;15.68;3.00;;;11.30;69.50;;;;;;9176818;19;20014;-67
2022/03/18 09:09:14;;;;;;;9.68;2.88;;;11.50;69.20;;;;;;9175778;19;20026;-69
2022/03/18 09:12:20;;;;;;;9.25;2.42;;;11.80;68.80;;;;;;9176796;19;20018;-67
2022/03/18 09:15:25;;;;;;;20.75;2.65;;;12.10;68.50;;;;;;9177080;19;20021;-67
2022/03/18 09:18:30;;;;;;;13.07;3.10;;;12.30;68.10;;;;;;9174622;19;20047;-67
2022/03/18 09:21:36;;;;;;;10.77;3.40;;;12.60;67.90;;;;;;9176234;19;20022;-68
2022/03/18 09:24:44;;;;;;;12.32;3.40;;;12.80;67.50;;;;;;9166965;19;20022;-67
2022/03/18 09:27:51;;;;;;;15.43;3.65;;;13.10;67.40;;;;;;9169312;19;20026;-68
2022/03/18 09:31:16;;;;;;;12.57;3.45;;;13.30;67.20;;;;;;9168613;19;20011;-67
2022/03/18 09:34:24;;;;;;;10.98;3.10;;;13.50;67.00;;;;;;9164519;19;20018;-67
2022/03/18 09:37:29;;;;;;;11.90;3.38;;;13.80;66.70;;;;;;9169604;19;20025;-67
2022/03/18 09:40:37;;;;;;;9.18;3.22;;;14.00;66.40;;;;;;9172578;19;20025;-67
2022/03/18 09:44:02;;;;;;;15.93;3.33;;;14.20;66.10;;;;;;9174775;19;20010;-67
2022/03/18 09:47:09;;;;;;;14.23;2.95;;;14.40;65.90;;;;;;9174663;19;20010;-67
2022/03/18 09:50:14;;;;;;;7.13;2.97;;;14.60;65.60;;;;;;9173756;19;20496;-67
2022/03/18 09:53:19;;;;;;;11.27;2.80;;;14.80;65.40;;;;;;9177042;19;20011;-69
2022/03/18 09:56:27;;;;;;;9.27;2.45;;;15.00;65.10;;;;;;9169320;19;20026;-66
2022/03/18 09:59:32;;;;;;;9.75;2.67;;;15.20;64.80;;;;;;9169031;19;20029;-67
2022/03/18 10:02:38;;;;;;;10.82;3.42;;;15.40;64.70;;;;;;9174421;19;20372;-66
2022/03/18 10:05:59;;;;;;;9.90;2.90;;;15.60;64.50;;;;;;9170315;19;20025;-67
2022/03/18 10:09:05;;;;;;;13.43;3.33;;;15.70;63.90;;;;;;9171102;19;20763;-66
2022/03/18 10:12:31;;;;;;;10.68;2.50;;;15.90;64.10;;;;;;9174487;19;20786;-67
2022/03/18 10:15:36;;;;;;;11.82;3.28;;;16.10;63.40;;;;;;9173055;19;20026;-67
2022/03/18 10:18:51;;;;;;;11.30;3.08;;;16.20;63.60;;;;;;9169625;19;20045;-67
2022/03/18 10:21:56;;;;;;;;;;;16.40;63.10;;;;;;9174191;19;20015;-67
2022/03/18 10:25:01;;;;;;;12.38;3.17;;;16.50;63.60;;;;;;9174085;19;19928;-67
2022/03/18 10:28:11;;;;;;;13.80;3.08;;;16.60;63.50;;;;;;9173910;19;20015;-66
2022/03/18 10:31:19;;;;;;;9.00;2.78;;;16.80;63.00;;;;;;9173981;19;20593;-68
2022/03/18 10:37:56;;;;;;;10.57;3.15;;;17.00;62.20;;;;;;9178045;19;20472;-68
2022/03/18 10:41:02;;;;;;;10.43;2.90;;;17.20;62.40;;;;;;9171091;19;20026;-69
2022/03/18 10:44:12;;;;;;;8.00;2.90;;;17.30;62.20;;;;;;9177315;19;20026;-68
2022/03/18 10:47:27;;;;;;;9.88;3.38;;;17.40;61.80;;;;;;9179626;19;20018;-66
2022/03/18 10:50:32;;;;;;;11.63;3.10;;;17.50;61.40;;;;;;9178636;19;20022;-68
2022/03/18 10:53:39;;;;;;;10.65;3.88;;;17.70;61.70;;;;;;9177876;19;20010;-67
2022/03/18 10:57:00;;;;;;;9.52;3.45;;;17.70;61.40;;;;;;9177058;19;20023;-67
2022/03/18 11:00:11;;;;;;;14.50;3.75;;;17.90;60.90;;;;;;9174743;19;20015;-67
2022/03/18 11:03:16;;;;;;;8.73;3.08;;;18.00;60.90;;;;;;9179119;19;20018;-67
2022/03/18 11:06:22;;;;;;;14.52;3.65;;;18.00;60.80;;;;;;9180111;19;20536;-69
2022/03/18 11:11:06;;;;;;;10.23;3.28;;;18.10;60.70;;;;;;9177263;19;20007;-67
2022/03/18 11:12:55;;;;;;;13.80;4.30;;;18.20;60.50;;;;;;9180123;19;20019;-68
2022/03/18 11:16:04;;;;;;;11.80;3.28;;;18.30;60.50;;;;;;9179959;19;20033;-68
2022/03/18 11:19:14;;;;;;;12.65;3.95;;;18.40;60.30;;;;;;9176136;19;20018;-68
2022/03/18 11:22:20;;;;;;;11.10;3.80;;;18.50;60.20;;;;;;9184631;19;20044;-68
2022/03/18 11:25:26;;;;;;;12.68;3.75;;;18.60;60.20;;;;;;9184801;19;20019;-67
2022/03/18 11:28:32;;;;;;;8.65;3.90;;;18.70;60.00;;;;;;9187382;19;20014;-68
2022/03/18 11:31:39;;;;;;;8.73;2.67;;;18.80;59.80;;;;;;9186367;19;20489;-68
2022/03/18 11:34:47;;;;;;;17.50;4.55;;;18.80;59.50;;;;;;9185900;19;20014;-68
2022/03/18 11:38:07;;;;;;;11.65;3.80;;;18.90;59.40;;;;;;9186244;19;20089;-64
2022/03/18 11:41:12;;;;;;;15.27;4.30;;;19.00;59.00;;;;;;9181347;19;20006;-64
2022/03/18 11:44:42;;;;;;;11.00;3.85;;;19.10;59.30;;;;;;9188336;19;20018;-64
2022/03/18 11:47:50;;;;;;;8.18;3.05;;;19.10;58.60;;;;;;9184819;19;20388;-63
2022/03/18 11:51:25;;;;;;;11.15;3.88;;;19.20;58.80;;;;;;9185779;19;20019;-64
2022/03/18 11:54:34;;;;;;;8.75;3.30;;;19.20;58.30;;;;;;9174156;19;21795;-63
2022/03/18 11:57:46;;;;;;;13.40;3.75;;;19.30;58.70;;;;;;9173660;19;20014;-65
2022/03/18 12:00:51;;;;;;;9.52;3.78;;;19.40;58.20;;;;;;9179651;19;20760;-64
2022/03/18 12:04:00;;;;;;;12.10;3.85;;;19.40;58.90;;;;;;9178395;19;20021;-64
2022/03/18 12:07:19;;;;;;;12.57;4.05;;;19.40;58.00;;;;;;9179436;19;20014;-62
2022/03/18 12:10:36;;;;;;;10.70;3.63;;;19.40;57.70;;;;;;9181513;19;20483;-63
2022/03/18 12:13:41;;;;;;;12.40;3.65;;;19.40;57.50;;;;;;9182193;19;20021;-63
2022/03/18 12:16:46;;;;;;;12.18;3.53;;;19.40;57.70;;;;;;9158633;19;20353;-62
2022/03/18 12:20:18;;;;;;;14.27;3.67;;;19.30;57.40;;;;;;9181877;19;20575;-62
2022/03/18 12:23:23;;;;;;;11.07;3.97;;;19.30;57.30;;;;;;9173204;19;20341;-69
2022/03/18 12:26:30;;;;;;;10.70;3.90;;;19.20;57.40;;;;;;9175442;19;20297;-67
2022/03/18 12:29:35;;;;;;;9.77;3.95;;;19.20;57.40;;;;;;9184317;19;20804;-66
2022/03/18 12:32:47;;;;;;;20.20;3.72;;;19.20;57.30;;;;;;9181816;19;20022;-65
2022/03/18 12:35:58;;;;;;;18.58;3.80;;;19.20;57.20;;;;;;9180057;19;20453;-66
2022/03/18 12:39:16;;;;;;;10.90;3.55;;;19.20;57.10;;;;;;9170999;19;20550;-67
2022/03/18 12:42:21;;;;;;;6.05;3.00;;;19.20;57.00;;;;;;9172244;19;20018;-65
2022/03/18 12:45:29;;;;;;;12.35;3.67;;;19.10;57.10;;;;;;9175851;19;20409;-66
2022/03/18 12:48:34;;;;;;;12.02;3.10;;;19.10;57.50;;;;;;9176614;19;20026;-67
2022/03/18 12:51:52;;;;;;;7.50;2.97;;;19.10;56.80;;;;;;9179347;19;20081;-67
2022/03/18 12:55:12;;;;;;;8.23;3.13;;;19.10;56.40;;;;;;9170033;19;20635;-68
2022/03/18 12:58:26;;;;;;;9.30;3.58;;;19.00;56.30;;;;;;9174543;19;20129;-67
2022/03/18 13:01:33;;;;;;;12.45;3.25;;;18.90;56.50;;;;;;9177992;19;20468;-68
2022/03/18 13:04:39;;;;;;;10.27;3.53;;;18.90;56.50;;;;;;9174031;19;20022;-63
2022/03/18 13:07:46;;;;;;;9.18;3.28;;;18.70;56.40;;;;;;9176180;19;20383;-64
2022/03/18 13:10:58;;;;;;;12.18;3.63;;;18.60;56.30;;;;;;9179576;19;20033;-63
2022/03/18 13:14:05;;;;;;;8.30;3.17;;;18.50;56.10;;;;;;9177399;19;20128;-64
2022/03/18 13:17:24;;;;;;;12.00;3.78;;;18.50;56.40;;;;;;9180925;19;20022;-63
2022/03/18 13:20:30;;;;;;;14.82;3.05;;;18.40;56.10;;;;;;9179931;19;20053;-63
2022/03/18 13:23:40;;;;;;;12.45;2.95;;;18.30;56.40;;;;;;9172110;19;20365;-63
2022/03/18 13:26:46;;;;;;;6.18;2.65;;;18.30;56.30;;;;;;9172961;19;20074;-61
2022/03/18 13:33:11;;;;;;;14.77;3.28;;;18.10;56.30;;;;;;9181816;19;20014;-63
2022/03/18 13:36:28;;;;;;;16.58;3.85;;;18.00;56.30;;;;;;9179811;19;20103;-62
2022/03/18 13:39:35;;;;;;;7.20;2.25;;;17.90;56.60;;;;;;9175548;19;20018;-63
2022/03/18 13:42:41;;;;;;;8.52;2.53;;;17.90;56.20;;;;;;9178857;19;20045;-61
2022/03/18 13:45:53;;;;;;;10.85;3.05;;;17.80;56.20;;;;;;9177404;19;20014;-62
2022/03/18 13:49:12;;;;;;;13.07;3.15;;;17.70;56.20;;;;;;9182434;19;20043;-62
2022/03/18 13:52:17;;;;;;;13.57;2.88;;;17.60;55.90;;;;;;9178426;19;20029;-62
2022/03/18 13:55:36;;;;;;;10.45;2.90;;;17.60;56.30;;;;;;9165852;19;20024;-63
2022/03/18 13:58:59;;;;;;;14.98;4.07;;;17.50;56.00;;;;;;9178780;19;20030;-64
2022/03/18 14:02:06;;;;;;;8.40;3.42;;;17.50;56.40;;;;;;9171337;19;20476;-63
2022/03/18 14:05:23;;;;;;;13.80;3.38;;;17.40;56.30;;;;;;9179969;19;20017;-62
2022/03/18 14:08:38;;;;;;;11.40;3.30;;;17.30;56.10;;;;;;9178496;19;20374;-62
2022/03/18 14:15:16;;;;;;;31.50;3.70;;;17.20;56.10;;;;;;9181446;19;20026;-62
2022/03/18 14:18:21;;;;;;;9.98;2.90;;;17.20;56.10;;;;;;9181214;19;20089;-62
2022/03/18 14:21:26;;;;;;;8.40;3.72;;;17.10;56.20;;;;;;9176786;19;20011;-63
2022/03/18 14:24:31;;;;;;;9.48;3.33;;;17.10;56.30;;;;;;9181240;19;20022;-62
2022/03/18 14:27:40;;;;;;;11.85;3.40;;;17.00;56.30;;;;;;9179385;19;20040;-62
2022/03/18 14:30:46;;;;;;;12.77;3.80;;;17.00;56.20;;;;;;9179137;19;20015;-61
2022/03/18 14:33:52;;;;;;;16.23;4.22;;;17.00;56.30;;;;;;9178957;19;20022;-63
2022/03/18 14:36:58;;;;;;;9.82;3.75;;;16.90;56.20;;;;;;9181882;19;20022;-62
2022/03/18 14:40:04;;;;;;;10.00;3.55;;;16.90;56.10;;;;;;9179977;19;20869;-62
2022/03/18 14:43:12;;;;;;;13.40;4.10;;;16.80;56.10;;;;;;9179869;19;20018;-63
2022/03/18 14:46:17;;;;;;;11.77;4.20;;;16.80;56.20;;;;;;9178738;19;20050;-62
2022/03/18 14:49:22;;;;;;;11.23;4.38;;;16.80;56.20;;;;;;9178720;19;20018;-61
2022/03/18 14:52:27;;;;;;;11.35;4.72;;;16.70;56.30;;;;;;9180095;19;20042;-62
2022/03/18 14:58:52;;;;;;;12.88;4.00;;;16.70;56.40;;;;;;9185269;19;20474;-62
2022/03/18 15:01:57;;;;;;;12.02;3.92;;;16.70;56.30;;;;;;9185438;19;20010;-62
2022/03/18 15:05:07;;;;;;;11.63;4.22;;;16.70;56.40;;;;;;9189204;19;20010;-61
2022/03/18 15:08:14;;;;;;;9.73;4.03;;;16.70;56.40;;;;;;9184689;19;20112;-61
2022/03/18 15:11:19;;;;;;;10.40;3.95;;;16.70;56.30;;;;;;9184642;19;20380;-61
2022/03/18 15:14:27;;;;;;;12.45;4.63;;;16.70;56.30;;;;;;9167551;19;20107;-63
2022/03/18 15:17:32;;;;;;;10.23;4.22;;;16.70;56.30;;;;;;9173745;19;20014;-62
2022/03/18 15:20:38;;;;;;;16.50;4.65;;;16.60;56.30;;;;;;9178324;19;20018;-61
2022/03/18 15:23:45;;;;;;;10.70;4.45;;;16.60;56.20;;;;;;9181604;19;20014;-61
2022/03/18 15:26:50;;;;;;;18.88;4.85;;;16.50;56.30;;;;;;9180336;19;20081;-63
2022/03/18 15:29:58;;;;;;;16.42;4.53;;;16.50;56.30;;;;;;9180401;19;20018;-63
2022/03/18 15:33:03;;;;;;;11.88;3.28;;;16.50;56.30;;;;;;9180534;19;20605;-61
2022/03/18 15:36:08;;;;;;;14.02;3.78;;;16.50;56.40;;;;;;9180639;19;20492;-62
2022/03/18 15:39:13;;;;;;;12.82;3.85;;;16.50;56.40;;;;;;9179493;19;20071;-62
2022/03/18 15:42:18;;;;;;;13.15;4.30;;;16.40;56.30;;;;;;9175563;19;20018;-63
2022/03/18 15:45:26;;;;;;;8.85;3.30;;;16.40;56.30;;;;;;9178031;19;20014;-62
2022/03/18 15:48:32;;;;;;;13.60;4.97;;;16.40;56.30;;;;;;9179210;19;20018;-61
2022/03/18 15:51:37;;;;;;;8.98;3.63;;;16.40;56.30;;;;;;9178277;19;20025;-63
2022/03/18 15:54:48;;;;;;;7.20;3.28;;;16.40;56.40;;;;;;9174834;19;20026;-62
2022/03/18 15:57:54;;;;;;;16.25;4.05;;;16.40;56.40;;;;;;9178723;19;20514;-63
2022/03/18 16:01:01;;;;;;;12.75;3.70;;;16.40;56.40;;;;;;9175484;19;20021;-62
2022/03/18 16:04:07;;;;;;;14.55;3.47;;;16.30;56.30;;;;;;9177191;19;20357;-63
2022/03/18 16:07:12;;;;;;;17.42;7.47;;;16.30;57.10;;;;;;9178005;19;20020;-63
2022/03/18 16:10:17;;;;;;;21.08;11.75;;;16.20;56.50;;;;;;9177030;19;20492;-62
2022/03/18 16:13:22;;;;;;;32.10;19.60;;;16.20;56.50;;;;;;9176165;19;20015;-63
2022/03/18 16:16:30;;;;;;;21.85;10.02;;;16.20;56.50;;;;;;9178619;19;20022;-64
2022/03/18 16:19:36;;;;;;;11.38;3.90;;;16.10;56.50;;;;;;9176164;19;20712;-62
2022/03/18 16:22:41;;;;;;;9.05;3.30;;;16.10;56.50;;;;;;9176877;19;20014;-62
2022/03/18 16:25:46;;;;;;;15.27;3.00;;;16.10;56.50;;;;;;9180367;19;20031;-64
2022/03/18 16:28:52;;;;;;;11.63;3.58;;;16.00;56.40;;;;;;9179696;19;20018;-63
2022/03/18 16:32:03;;;;;;;12.10;3.58;;;16.00;56.40;;;;;;9179215;19;20018;-64
2022/03/18 16:35:11;;;;;;;8.20;3.90;;;15.90;56.40;;;;;;9178633;19;20014;-63
2022/03/18 16:38:17;;;;;;;11.18;3.83;;;15.90;56.50;;;;;;9175912;19;20021;-62
2022/03/18 16:41:22;;;;;;;15.07;3.72;;;15.80;56.50;;;;;;9177240;19;20468;-63
2022/03/18 16:44:27;;;;;;;6.80;3.13;;;15.80;56.50;;;;;;9177080;19;20018;-61